Last 24 Hours

Thomas Mountain

10 Minute Data | America/Los_Angeles
as of 5/4/26 2:00 PM PDT
Date & Time Temp (°F) Dew Pt (°F) RH (%) Wind Spd (mph) Wind Dir (°) Wind Gust (mph) Wind Gst Dir (°) Daily Max Temp (°F) Daily Min Temp (°F)
5/4/26 - 1400 44.5 36.1 72 13.3 W | 274 20.1 WNW | 288 45.7 37.9
5/4/26 - 1350 45.3 35.9 70 10.8 W | 264 18.2 WSW | 253 45.7 37.9
5/4/26 - 1340 45.5 35.6 68 11.7 W | 265 20.9 SW | 236 45.7 37.9
5/4/26 - 1330 45.4 35.8 69 9.8 W | 264 17.5 W | 272 45.7 37.9
5/4/26 - 1320 45.2 35.5 69 9.7 W | 263 19.9 WSW | 248 45.6 37.9
5/4/26 - 1310 44.7 35.6 70 10.0 WSW | 254 20.3 WSW | 253 45.2 37.9
5/4/26 - 1300 43.8 35.8 73 10.4 W | 270 19.6 WSW | 258 44.6 37.9
5/4/26 - 1250 43.5 35.9 74 10.2 W | 275 17.8 WNW | 282 44.6 37.9
5/4/26 - 1240 43.5 36.0 75 7.8 W | 276 14.1 WSW | 255 44.6 37.9
5/4/26 - 1230 43.0 36.4 77 11.3 WNW | 285 18.5 W | 278 44.6 37.9
5/4/26 - 1220 43.3 36.4 77 9.0 W | 263 17.2 WNW | 285 44.6 37.9
5/4/26 - 1210 43.2 36.4 77 12.8 WSW | 248 19.6 WSW | 250 44.6 37.9
5/4/26 - 1200 43.3 36.3 76 11.4 WSW | 250 19.6 WSW | 258 44.6 37.9
5/4/26 - 1150 43.2 36.1 76 12.4 WSW | 250 20.2 WSW | 244 44.6 37.9
5/4/26 - 1140 43.6 36.0 74 10.7 WSW | 255 19.6 WSW | 245 44.6 37.9
5/4/26 - 1130 43.6 35.2 72 14.6 WSW | 254 23.8 WSW | 258 44.3 37.9
5/4/26 - 1120 43.5 35.1 72 11.7 W | 262 20.7 WSW | 245 44.1 37.9
5/4/26 - 1110 42.7 34.7 73 13.0 WSW | 243 24.0 WSW | 252 43.4 37.9
5/4/26 - 1100 42.5 35.9 77 11.7 WSW | 252 19.3 W | 268 43.1 37.9
5/4/26 - 1050 42.1 36.0 79 12.8 WSW | 245 19.6 WSW | 257 43.0 37.9
5/4/26 - 1040 41.8 36.1 80 13.3 WSW | 244 19.4 SW | 234 43.0 37.9
5/4/26 - 1030 41.7 36.1 80 11.5 WSW | 246 18.0 WSW | 256 43.0 37.9
5/4/26 - 1020 41.7 36.3 81 13.7 WSW | 247 19.4 WSW | 256 43.0 37.9
5/4/26 - 1010 41.1 36.3 83 13.2 WSW | 246 21.0 WSW | 255 43.0 37.9
5/4/26 - 1000 41.8 36.8 82 13.2 WSW | 250 20.1 SSW | 211 43.0 37.9
5/4/26 - 0950 42.0 36.0 79 9.2 WSW | 257 16.1 W | 269 43.0 37.9
5/4/26 - 0940 41.0 35.5 80 12.8 WSW | 255 21.2 W | 261 41.3 37.9
5/4/26 - 0930 40.9 35.6 82 10.6 W | 264 18.0 W | 281 41.2 37.9
5/4/26 - 0920 40.0 36.1 86 10.0 W | 259 18.6 W | 266 40.5 37.9
5/4/26 - 0910 39.7 35.5 84 9.7 W | 264 17.5 W | 260 40.4 37.9
5/4/26 - 0900 39.1 35.6 87 12.3 WSW | 252 20.2 W | 272 40.4 37.9
5/4/26 - 0850 39.1 36.2 89 9.9 WSW | 254 17.3 WSW | 242 40.4 37.9
5/4/26 - 0840 38.9 35.9 89 8.6 W | 264 16.1 W | 261 40.4 37.9
5/4/26 - 0830 38.9 36.0 89 8.2 W | 276 16.3 W | 266 40.4 37.9
5/4/26 - 0820 39.0 36.5 90 5.3 W | 278 9.0 W | 261 40.4 37.9
5/4/26 - 0810 39.0 37.0 92 4.8 W | 275 8.8 WSW | 247 40.4 37.9
5/4/26 - 0800 39.1 37.1 92 3.5 WNW | 292 7.6 NW | 324 40.4 37.9
5/4/26 - 0750 38.9 37.2 93 3.1 WNW | 299 7.5 WNW | 284 40.4 37.9
5/4/26 - 0740 38.6 37.0 94 3.5 WNW | 301 6.9 WNW | 297 40.4 37.9
5/4/26 - 0730 38.3 37.0 95 2.7 WNW | 303 7.2 NW | 317 40.4 37.9
5/4/26 - 0720 38.1 37.3 97 3.5 NW | 304 10.8 N | 10 40.4 37.9
5/4/26 - 0710 38.0 37.3 97 7.2 WNW | 293 15.2 W | 280 40.4 37.9
5/4/26 - 0700 38.0 37.5 98 9.2 W | 275 17.0 WNW | 287 40.4 37.9
5/4/26 - 0650 38.0 37.5 98 9.2 W | 276 14.5 WNW | 282 40.4 37.9
5/4/26 - 0640 38.1 37.7 98 9.5 W | 275 16.4 W | 275 40.4 37.9
5/4/26 - 0630 38.1 37.7 98 9.9 W | 274 16.4 W | 270 40.4 38.0
5/4/26 - 0620 38.2 37.6 98 10.2 W | 275 15.3 W | 270 40.4 38.0
5/4/26 - 0610 38.2 37.5 97 10.0 W | 273 21.8 WNW | 286 40.4 38.0
5/4/26 - 0600 38.2 37.4 97 10.8 W | 276 22.2 W | 278 40.4 38.0
5/4/26 - 0550 38.1 37.5 98 9.5 W | 272 16.7 W | 276 40.4 38.0
5/4/26 - 0540 38.0 37.3 97 9.7 W | 270 17.8 W | 275 40.4 38.0
5/4/26 - 0530 38.0 37.2 97 13.3 W | 275 21.0 W | 278 40.4 38.0
5/4/26 - 0520 38.2 37.4 97 11.0 W | 273 18.1 W | 279 40.4 38.0
5/4/26 - 0510 38.3 37.4 96 10.3 W | 273 19.7 W | 272 40.4 38.1
5/4/26 - 0500 38.3 37.0 95 9.0 W | 275 14.6 W | 275 40.4 38.2
5/4/26 - 0450 38.3 36.8 94 10.3 W | 279 15.4 WNW | 291 40.4 38.2
5/4/26 - 0440 38.5 36.5 92 10.2 W | 277 17.0 W | 260 40.4 38.4
5/4/26 - 0430 38.5 36.1 91 10.6 W | 280 18.3 WNW | 286 40.4 38.4
5/4/26 - 0420 38.4 36.2 92 9.4 W | 279 15.5 W | 268 40.4 38.4
5/4/26 - 0410 38.4 36.2 91 11.3 W | 281 17.6 WSW | 254 40.4 38.4
5/4/26 - 0400 38.6 35.6 89 12.4 W | 276 19.1 W | 268 40.4 38.5
5/4/26 - 0350 38.9 35.5 87 10.0 W | 277 17.8 W | 276 40.4 38.8
5/4/26 - 0340 39.2 35.7 87 7.7 WNW | 283 14.9 WSW | 255 40.4 39.0
5/4/26 - 0330 39.4 35.9 87 7.6 W | 274 15.8 WNW | 285 40.4 39.0
5/4/26 - 0320 39.5 36.1 87 8.5 W | 279 16.0 W | 275 40.4 39.0
5/4/26 - 0310 39.6 36.4 88 8.3 W | 270 16.4 WSW | 252 40.4 39.0
5/4/26 - 0300 39.6 36.4 88 9.0 WNW | 285 15.3 W | 263 40.4 39.0
5/4/26 - 0250 39.6 36.6 89 9.0 W | 274 15.4 WSW | 254 40.4 39.0
5/4/26 - 0240 39.8 36.5 88 10.8 WNW | 284 19.6 W | 270 40.4 39.0
5/4/26 - 0230 39.9 36.5 87 9.2 W | 272 18.0 W | 266 40.4 39.0
5/4/26 - 0220 39.8 36.5 88 7.6 WNW | 301 13.6 WNW | 293 40.4 39.0
5/4/26 - 0210 39.7 37.0 90 9.3 WNW | 284 17.2 WNW | 282 40.4 39.0
5/4/26 - 0200 40.0 36.9 89 10.1 WNW | 288 20.2 WNW | 289 40.4 39.0
5/4/26 - 0150 40.2 36.6 87 13.2 WNW | 284 21.8 W | 275 40.4 39.0
5/4/26 - 0140 39.9 36.6 88 10.3 WNW | 284 20.0 W | 273 40.1 39.0
5/4/26 - 0130 39.5 37.2 91 12.1 WNW | 283 21.3 WNW | 282 39.7 39.0
5/4/26 - 0120 39.0 37.3 94 11.3 WNW | 284 22.0 WNW | 282 39.3 39.0
5/4/26 - 0110 39.1 37.4 93 14.9 W | 274 23.5 W | 269 39.2 39.0
5/4/26 - 0100 39.1 37.1 92 13.8 W | 276 23.1 WSW | 242 65.9 38.5
5/4/26 - 0050 39.0 36.6 91 10.6 WNW | 286 19.4 WNW | 283 65.9 38.5
5/4/26 - 0040 38.9 36.4 90 12.6 W | 279 20.5 W | 267 65.9 38.5
5/4/26 - 0030 38.8 36.7 92 12.7 W | 270 22.5 WNW | 296 65.9 38.5
5/4/26 - 0020 38.8 36.8 92 15.0 WSW | 250 28.0 WSW | 239 65.9 38.5
5/4/26 - 0010 38.7 37.3 95 11.7 W | 259 20.8 W | 259 65.9 38.5
5/4/26 - 0000 38.8 37.7 96 9.8 W | 268 16.7 WNW | 284 65.9 38.6
5/3/26 - 2350 38.7 37.8 97 12.6 WSW | 257 22.1 W | 269 65.9 38.6
5/3/26 - 2340 38.9 38.4 98 11.5 WSW | 253 21.9 WSW | 258 65.9 38.8
5/3/26 - 2330 38.9 38.7 99 7.5 W | 277 14.0 W | 271 65.9 38.8
5/3/26 - 2320 38.9 38.8 100 7.8 W | 273 14.5 W | 277 65.9 38.8
5/3/26 - 2310 38.9 38.9 100 8.7 W | 268 17.0 WNW | 298 65.9 38.8
5/3/26 - 2300 39.2 39.2 100 9.0 W | 270 16.0 W | 266 65.9 39.1
5/3/26 - 2250 39.4 39.4 100 9.0 W | 269 15.9 WSW | 252 65.9 39.3
5/3/26 - 2240 39.6 39.6 100 8.4 W | 273 15.7 W | 278 65.9 39.6
5/3/26 - 2230 39.7 39.6 100 8.4 W | 259 13.7 WSW | 250 65.9 39.7
5/3/26 - 2220 39.7 39.6 100 8.7 WSW | 255 13.8 WSW | 250 65.9 39.7
5/3/26 - 2210 39.8 39.7 100 7.9 W | 266 13.7 W | 270 65.9 39.7
5/3/26 - 2200 39.9 39.9 100 9.4 W | 274 16.2 W | 271 65.9 39.8
5/3/26 - 2150 40.2 40.2 100 9.1 W | 277 14.2 W | 263 65.9 40.0
5/3/26 - 2140 40.5 40.4 100 8.7 W | 269 15.6 W | 280 65.9 40.2
5/3/26 - 2130 40.6 40.6 100 10.1 WSW | 255 17.5 WSW | 254 65.9 40.5
5/3/26 - 2120 40.8 40.8 100 7.5 W | 259 14.3 WSW | 249 65.9 40.7
5/3/26 - 2110 40.8 40.8 100 7.9 WSW | 258 12.7 W | 276 65.9 40.7
5/3/26 - 2100 41.0 40.9 100 8.2 WSW | 258 14.3 W | 263 65.9 40.8
5/3/26 - 2050 41.0 41.0 100 9.6 WSW | 251 15.4 SW | 235 65.9 41.0
5/3/26 - 2040 41.2 41.2 100 9.5 WSW | 255 15.0 WSW | 258 65.9 41.1
5/3/26 - 2030 41.6 41.4 99 8.3 W | 272 13.4 W | 279 65.9 41.4
5/3/26 - 2020 41.8 41.5 99 8.2 W | 268 14.0 WNW | 282 65.9 41.7
5/3/26 - 2010 42.2 41.8 98 9.6 W | 278 15.2 NW | 305 65.9 41.9
5/3/26 - 2000 43.0 42.4 98 7.9 WNW | 283 14.6 WNW | 291 65.9 42.7
5/3/26 - 1950 43.2 42.5 97 10.6 W | 280 16.8 W | 268 65.9 43.1
5/3/26 - 1940 43.6 42.7 96 11.1 W | 271 17.5 WNW | 282 65.9 43.3
5/3/26 - 1930 44.3 43.0 95 12.4 WSW | 252 18.5 WSW | 254 65.9 44.0
5/3/26 - 1920 45.6 43.5 92 11.6 WSW | 245 18.9 WSW | 245 65.9 44.9
5/3/26 - 1910 47.0 44.0 89 7.7 W | 266 14.8 WSW | 247 65.9 46.3
5/3/26 - 1900 48.3 44.6 87 7.0 W | 268 12.2 WSW | 250 65.9 47.7
5/3/26 - 1850 48.6 44.6 86 8.7 W | 269 16.2 W | 276 65.9 48.5
5/3/26 - 1840 49.4 44.9 84 9.4 W | 267 17.1 WSW | 247 65.9 49.0
5/3/26 - 1830 50.5 44.7 80 11.7 WSW | 254 18.8 SW | 236 65.9 49.8
5/3/26 - 1820 51.5 44.8 78 8.9 W | 265 16.5 W | 276 65.9 51.2
5/3/26 - 1810 51.8 44.8 77 12.2 W | 274 19.7 W | 278 65.9 51.4
5/3/26 - 1800 53.0 45.0 74 11.5 WSW | 256 18.8 WSW | 245 65.9 52.7
5/3/26 - 1750 54.0 45.1 71 12.5 WSW | 249 21.3 W | 265 65.9 53.2
5/3/26 - 1740 54.1 45.1 71 13.8 WSW | 247 21.9 WSW | 252 65.9 53.6
5/3/26 - 1730 54.4 45.8 72 12.7 WSW | 248 19.5 WSW | 246 65.9 53.7
5/3/26 - 1720 54.7 46.4 73 12.6 WSW | 239 19.3 WSW | 237 65.9 53.7
5/3/26 - 1710 54.6 47.1 76 12.8 WSW | 238 19.1 SW | 225 65.9 53.7
5/3/26 - 1700 54.3 47.2 77 13.4 WSW | 238 19.1 SW | 233 65.9 53.7
5/3/26 - 1650 54.9 47.3 75 14.1 WSW | 239 20.8 WSW | 239 65.9 53.7
5/3/26 - 1640 54.7 47.0 75 13.4 WSW | 239 21.5 WSW | 245 65.9 53.7
5/3/26 - 1630 54.4 46.7 75 14.2 WSW | 245 22.6 WSW | 239 65.9 53.7
5/3/26 - 1620 54.3 46.1 74 14.4 WSW | 247 22.0 WSW | 239 65.9 53.7
5/3/26 - 1610 54.8 45.6 71 12.9 WSW | 241 21.3 SW | 236 65.9 54.2
5/3/26 - 1600 54.7 45.4 71 11.5 WSW | 246 19.9 W | 264 65.9 54.2
5/3/26 - 1550 55.2 45.5 70 13.4 WSW | 246 22.1 WSW | 240 65.9 54.2
5/3/26 - 1540 54.9 45.9 71 13.2 WSW | 242 20.1 W | 259 65.9 54.2
5/3/26 - 1530 55.0 46.0 72 13.6 WSW | 242 23.5 WSW | 245 65.9 54.2
5/3/26 - 1520 55.8 46.1 70 14.9 WSW | 252 22.1 SW | 234 65.9 54.9
5/3/26 - 1510 55.8 46.3 70 11.3 WSW | 249 19.4 WSW | 250 65.9 54.9
5/3/26 - 1500 56.0 46.3 70 12.5 WSW | 246 20.1 WSW | 241 65.9 55.5
5/3/26 - 1450 56.9 46.6 68 12.2 WSW | 245 18.6 SW | 236 65.9 55.6
5/3/26 - 1440 57.1 46.8 68 13.6 WSW | 249 21.0 WSW | 254 65.9 55.6
5/3/26 - 1430 56.8 47.0 69 15.8 WSW | 248 22.1 WSW | 254 65.9 55.6
5/3/26 - 1420 56.8 47.5 71 15.9 WSW | 244 25.1 SW | 226 65.9 55.6
5/3/26 - 1410 56.8 47.3 71 16.4 WSW | 247 25.4 WSW | 252 65.9 55.6
5/3/26 - 1400 57.9 46.3 65 17.4 WSW | 245 24.2 WSW | 246 65.9 57.0
Max 57.9 47.5 100 17.4 - 28.0 - 65.9 57.0
Avg 43.4 39.3 86 10.6 - 18.0 - - -
Min 38.0 34.7 65 2.7 - 6.9 - 39.2 37.9